sensor_id;sensor_type;location;lat;lon;timestamp;temperature;humidity
12130;DHT22;6128;59.340;18.040;2022-09-21T00:01:32;8.10;99.90
12130;DHT22;6128;59.340;18.040;2022-09-21T00:04:01;8.10;99.90
12130;DHT22;6128;59.340;18.040;2022-09-21T00:06:30;8.10;99.90
12130;DHT22;6128;59.340;18.040;2022-09-21T00:08:58;8.10;99.90
12130;DHT22;6128;59.340;18.040;2022-09-21T00:11:28;8.10;99.90
12130;DHT22;6128;59.340;18.040;2022-09-21T00:13:57;8.10;99.90
12130;DHT22;6128;59.340;18.040;2022-09-21T00:16:27;8.10;99.90
12130;DHT22;6128;59.340;18.040;2022-09-21T00:18:54;8.10;99.90
12130;DHT22;6128;59.340;18.040;2022-09-21T00:21:23;8.10;99.90
12130;DHT22;6128;59.340;18.040;2022-09-21T00:23:50;8.10;99.90
12130;DHT22;6128;59.340;18.040;2022-09-21T00:26:20;8.20;99.90
12130;DHT22;6128;59.340;18.040;2022-09-21T00:28:51;8.20;99.90
12130;DHT22;6128;59.340;18.040;2022-09-21T00:31:19;8.10;99.90
12130;DHT22;6128;59.340;18.040;2022-09-21T00:33:46;8.20;99.90
12130;DHT22;6128;59.340;18.040;2022-09-21T00:36:17;8.20;99.90
12130;DHT22;6128;59.340;18.040;2022-09-21T00:38:48;8.20;99.90
12130;DHT22;6128;59.340;18.040;2022-09-21T00:41:16;8.20;99.90
12130;DHT22;6128;59.340;18.040;2022-09-21T00:43:46;8.20;99.90
12130;DHT22;6128;59.340;18.040;2022-09-21T00:46:17;8.20;99.90
12130;DHT22;6128;59.340;18.040;2022-09-21T00:48:48;8.10;99.90
12130;DHT22;6128;59.340;18.040;2022-09-21T00:51:15;8.10;99.90
12130;DHT22;6128;59.340;18.040;2022-09-21T00:53:44;8.10;99.90
12130;DHT22;6128;59.340;18.040;2022-09-21T00:56:14;8.00;99.90
12130;DHT22;6128;59.340;18.040;2022-09-21T00:58:45;8.00;99.90
12130;DHT22;6128;59.340;18.040;2022-09-21T01:01:15;7.90;99.90
12130;DHT22;6128;59.340;18.040;2022-09-21T01:03:43;7.90;99.90
12130;DHT22;6128;59.340;18.040;2022-09-21T01:06:12;7.90;99.90
12130;DHT22;6128;59.340;18.040;2022-09-21T01:08:39;7.90;99.90
12130;DHT22;6128;59.340;18.040;2022-09-21T01:11:22;7.80;99.90
12130;DHT22;6128;59.340;18.040;2022-09-21T01:14:06;7.80;99.90
12130;DHT22;6128;59.340;18.040;2022-09-21T01:16:41;7.80;99.90
12130;DHT22;6128;59.340;18.040;2022-09-21T01:19:21;7.70;99.90
12130;DHT22;6128;59.340;18.040;2022-09-21T01:21:57;7.70;99.90
12130;DHT22;6128;59.340;18.040;2022-09-21T01:24:47;7.70;99.90
12130;DHT22;6128;59.340;18.040;2022-09-21T01:27:40;7.70;99.90
12130;DHT22;6128;59.340;18.040;2022-09-21T01:30:14;7.70;99.90
12130;DHT22;6128;59.340;18.040;2022-09-21T01:32:46;7.70;99.90
12130;DHT22;6128;59.340;18.040;2022-09-21T01:35:17;7.70;99.90
12130;DHT22;6128;59.340;18.040;2022-09-21T01:37:48;7.70;99.90
12130;DHT22;6128;59.340;18.040;2022-09-21T01:40:19;7.60;99.90
12130;DHT22;6128;59.340;18.040;2022-09-21T01:42:48;7.60;99.90
12130;DHT22;6128;59.340;18.040;2022-09-21T01:45:23;7.60;99.90
12130;DHT22;6128;59.340;18.040;2022-09-21T01:47:53;7.60;99.90
12130;DHT22;6128;59.340;18.040;2022-09-21T01:50:22;7.60;99.90
12130;DHT22;6128;59.340;18.040;2022-09-21T01:52:53;7.60;99.90
12130;DHT22;6128;59.340;18.040;2022-09-21T01:55:24;7.60;99.90
12130;DHT22;6128;59.340;18.040;2022-09-21T01:57:57;7.60;99.90
12130;DHT22;6128;59.340;18.040;2022-09-21T02:00:29;7.60;99.90
12130;DHT22;6128;59.340;18.040;2022-09-21T02:03:00;7.60;99.90
12130;DHT22;6128;59.340;18.040;2022-09-21T02:05:30;7.60;99.90
12130;DHT22;6128;59.340;18.040;2022-09-21T02:07:57;7.60;99.90
12130;DHT22;6128;59.340;18.040;2022-09-21T02:10:29;7.60;99.90
12130;DHT22;6128;59.340;18.040;2022-09-21T02:12:59;7.60;99.90
12130;DHT22;6128;59.340;18.040;2022-09-21T02:15:33;7.60;99.90
12130;DHT22;6128;59.340;18.040;2022-09-21T02:18:07;7.60;99.90
12130;DHT22;6128;59.340;18.040;2022-09-21T02:20:39;7.70;99.90
12130;DHT22;6128;59.340;18.040;2022-09-21T02:23:13;7.70;99.90
12130;DHT22;6128;59.340;18.040;2022-09-21T02:25:48;7.70;99.90
12130;DHT22;6128;59.340;18.040;2022-09-21T02:28:28;7.80;99.90
12130;DHT22;6128;59.340;18.040;2022-09-21T02:31:08;7.90;99.90
12130;DHT22;6128;59.340;18.040;2022-09-21T02:33:43;7.90;99.90
12130;DHT22;6128;59.340;18.040;2022-09-21T02:36:20;8.00;99.90
12130;DHT22;6128;59.340;18.040;2022-09-21T02:38:51;8.00;99.90
12130;DHT22;6128;59.340;18.040;2022-09-21T02:41:23;8.00;99.90
12130;DHT22;6128;59.340;18.040;2022-09-21T02:43:58;8.10;99.90
12130;DHT22;6128;59.340;18.040;2022-09-21T02:46:33;8.10;99.90
12130;DHT22;6128;59.340;18.040;2022-09-21T02:49:04;8.10;99.90
12130;DHT22;6128;59.340;18.040;2022-09-21T02:51:37;8.10;99.90
12130;DHT22;6128;59.340;18.040;2022-09-21T02:54:08;8.10;99.90
12130;DHT22;6128;59.340;18.040;2022-09-21T02:56:38;8.10;99.90
12130;DHT22;6128;59.340;18.040;2022-09-21T02:59:07;8.10;99.90
12130;DHT22;6128;59.340;18.040;2022-09-21T03:01:36;8.20;99.90
12130;DHT22;6128;59.340;18.040;2022-09-21T03:04:05;8.20;99.90
12130;DHT22;6128;59.340;18.040;2022-09-21T03:06:32;8.20;99.90
12130;DHT22;6128;59.340;18.040;2022-09-21T03:08:59;8.30;99.90
12130;DHT22;6128;59.340;18.040;2022-09-21T03:11:26;8.30;99.90
12130;DHT22;6128;59.340;18.040;2022-09-21T03:13:54;8.30;99.90
12130;DHT22;6128;59.340;18.040;2022-09-21T03:16:21;8.30;99.90
12130;DHT22;6128;59.340;18.040;2022-09-21T03:18:51;8.40;99.90
12130;DHT22;6128;59.340;18.040;2022-09-21T03:21:18;8.40;99.90
12130;DHT22;6128;59.340;18.040;2022-09-21T03:23:46;8.40;99.90
12130;DHT22;6128;59.340;18.040;2022-09-21T03:26:14;8.40;99.90
12130;DHT22;6128;59.340;18.040;2022-09-21T03:28:41;8.40;99.90
12130;DHT22;6128;59.340;18.040;2022-09-21T03:31:09;8.40;99.90
12130;DHT22;6128;59.340;18.040;2022-09-21T03:33:37;8.40;99.90
12130;DHT22;6128;59.340;18.040;2022-09-21T03:36:06;8.50;99.90
12130;DHT22;6128;59.340;18.040;2022-09-21T03:38:33;8.40;99.90
12130;DHT22;6128;59.340;18.040;2022-09-21T03:41:01;8.40;99.90
12130;DHT22;6128;59.340;18.040;2022-09-21T03:43:28;8.40;99.90
12130;DHT22;6128;59.340;18.040;2022-09-21T03:45:55;8.40;99.90
12130;DHT22;6128;59.340;18.040;2022-09-21T03:48:23;8.40;99.90
12130;DHT22;6128;59.340;18.040;2022-09-21T03:50:50;8.50;99.90
12130;DHT22;6128;59.340;18.040;2022-09-21T03:53:19;8.50;99.90
12130;DHT22;6128;59.340;18.040;2022-09-21T03:55:46;8.50;99.90
12130;DHT22;6128;59.340;18.040;2022-09-21T03:58:14;8.50;99.90
12130;DHT22;6128;59.340;18.040;2022-09-21T04:00:41;8.50;99.90
12130;DHT22;6128;59.340;18.040;2022-09-21T04:03:08;8.50;99.90
12130;DHT22;6128;59.340;18.040;2022-09-21T04:05:37;8.50;99.90
12130;DHT22;6128;59.340;18.040;2022-09-21T04:08:05;8.50;99.90
12130;DHT22;6128;59.340;18.040;2022-09-21T04:10:34;8.40;99.90
12130;DHT22;6128;59.340;18.040;2022-09-21T04:13:03;8.40;99.90
12130;DHT22;6128;59.340;18.040;2022-09-21T04:15:31;8.40;99.90
12130;DHT22;6128;59.340;18.040;2022-09-21T04:17:59;8.40;99.90
12130;DHT22;6128;59.340;18.040;2022-09-21T04:20:27;8.40;99.90
12130;DHT22;6128;59.340;18.040;2022-09-21T04:22:54;8.40;99.90
12130;DHT22;6128;59.340;18.040;2022-09-21T04:25:22;8.30;99.90
12130;DHT22;6128;59.340;18.040;2022-09-21T04:27:54;8.30;99.90
12130;DHT22;6128;59.340;18.040;2022-09-21T04:30:21;8.30;99.90
12130;DHT22;6128;59.340;18.040;2022-09-21T04:32:48;8.20;99.90
12130;DHT22;6128;59.340;18.040;2022-09-21T04:35:16;8.20;99.90
12130;DHT22;6128;59.340;18.040;2022-09-21T04:37:43;8.10;99.90
12130;DHT22;6128;59.340;18.040;2022-09-21T04:40:10;8.10;99.90
12130;DHT22;6128;59.340;18.040;2022-09-21T04:42:38;8.10;99.90
12130;DHT22;6128;59.340;18.040;2022-09-21T04:45:07;8.00;99.90
12130;DHT22;6128;59.340;18.040;2022-09-21T04:47:43;8.00;99.90
12130;DHT22;6128;59.340;18.040;2022-09-21T04:50:11;8.00;99.90
12130;DHT22;6128;59.340;18.040;2022-09-21T04:52:38;8.00;99.90
12130;DHT22;6128;59.340;18.040;2022-09-21T04:55:06;8.00;99.90
12130;DHT22;6128;59.340;18.040;2022-09-21T04:57:34;8.00;99.90
12130;DHT22;6128;59.340;18.040;2022-09-21T05:00:02;8.00;99.90
12130;DHT22;6128;59.340;18.040;2022-09-21T05:02:31;8.00;99.90
12130;DHT22;6128;59.340;18.040;2022-09-21T05:04:59;8.00;99.90
12130;DHT22;6128;59.340;18.040;2022-09-21T05:07:26;8.00;99.90
12130;DHT22;6128;59.340;18.040;2022-09-21T05:09:58;8.10;99.90
12130;DHT22;6128;59.340;18.040;2022-09-21T05:12:32;8.10;99.90
12130;DHT22;6128;59.340;18.040;2022-09-21T05:14:59;8.20;99.90
12130;DHT22;6128;59.340;18.040;2022-09-21T05:17:27;8.20;99.90
12130;DHT22;6128;59.340;18.040;2022-09-21T05:19:55;8.30;99.90
12130;DHT22;6128;59.340;18.040;2022-09-21T05:22:23;8.30;99.90
12130;DHT22;6128;59.340;18.040;2022-09-21T05:24:50;8.30;99.90
12130;DHT22;6128;59.340;18.040;2022-09-21T05:27:24;8.30;99.90
12130;DHT22;6128;59.340;18.040;2022-09-21T05:30:25;8.30;99.90
12130;DHT22;6128;59.340;18.040;2022-09-21T05:33:30;8.40;99.90
12130;DHT22;6128;59.340;18.040;2022-09-21T05:36:30;8.40;99.90
12130;DHT22;6128;59.340;18.040;2022-09-21T05:39:15;8.40;99.90
12130;DHT22;6128;59.340;18.040;2022-09-21T05:41:47;8.50;99.90
12130;DHT22;6128;59.340;18.040;2022-09-21T05:44:19;8.50;99.90
12130;DHT22;6128;59.340;18.040;2022-09-21T05:46:52;8.50;99.90
12130;DHT22;6128;59.340;18.040;2022-09-21T05:49:40;8.60;99.90
12130;DHT22;6128;59.340;18.040;2022-09-21T05:52:23;8.70;99.90
12130;DHT22;6128;59.340;18.040;2022-09-21T05:55:09;8.80;99.90
12130;DHT22;6128;59.340;18.040;2022-09-21T05:57:54;8.90;99.90
12130;DHT22;6128;59.340;18.040;2022-09-21T06:00:36;9.00;99.90
12130;DHT22;6128;59.340;18.040;2022-09-21T06:03:25;9.10;99.90
12130;DHT22;6128;59.340;18.040;2022-09-21T06:05:53;9.10;99.90
12130;DHT22;6128;59.340;18.040;2022-09-21T06:08:25;9.20;99.90
12130;DHT22;6128;59.340;18.040;2022-09-21T06:10:53;9.20;99.90
12130;DHT22;6128;59.340;18.040;2022-09-21T06:13:21;9.20;99.90
12130;DHT22;6128;59.340;18.040;2022-09-21T06:15:48;9.10;99.90
12130;DHT22;6128;59.340;18.040;2022-09-21T06:18:15;9.10;99.90
12130;DHT22;6128;59.340;18.040;2022-09-21T06:20:45;9.10;99.90
12130;DHT22;6128;59.340;18.040;2022-09-21T06:23:13;9.10;99.90
12130;DHT22;6128;59.340;18.040;2022-09-21T06:25:42;9.20;99.90
12130;DHT22;6128;59.340;18.040;2022-09-21T06:28:10;9.20;99.90
12130;DHT22;6128;59.340;18.040;2022-09-21T06:30:38;9.20;99.90
12130;DHT22;6128;59.340;18.040;2022-09-21T06:33:08;9.30;99.90
12130;DHT22;6128;59.340;18.040;2022-09-21T06:35:35;9.30;99.90
12130;DHT22;6128;59.340;18.040;2022-09-21T06:38:06;9.40;99.90
12130;DHT22;6128;59.340;18.040;2022-09-21T06:40:34;9.50;99.90
12130;DHT22;6128;59.340;18.040;2022-09-21T06:43:04;9.50;99.90
12130;DHT22;6128;59.340;18.040;2022-09-21T06:45:32;9.60;99.90
12130;DHT22;6128;59.340;18.040;2022-09-21T06:47:59;9.70;99.90
12130;DHT22;6128;59.340;18.040;2022-09-21T06:50:26;9.80;99.90
12130;DHT22;6128;59.340;18.040;2022-09-21T06:52:53;10.00;99.90
12130;DHT22;6128;59.340;18.040;2022-09-21T06:55:20;10.80;99.90
12130;DHT22;6128;59.340;18.040;2022-09-21T06:57:47;12.00;99.90
12130;DHT22;6128;59.340;18.040;2022-09-21T07:00:17;13.20;99.90
12130;DHT22;6128;59.340;18.040;2022-09-21T07:02:45;14.60;99.90
12130;DHT22;6128;59.340;18.040;2022-09-21T07:05:12;15.80;99.90
12130;DHT22;6128;59.340;18.040;2022-09-21T07:07:39;16.80;99.90
12130;DHT22;6128;59.340;18.040;2022-09-21T07:10:07;17.80;99.90
12130;DHT22;6128;59.340;18.040;2022-09-21T07:12:35;18.80;99.90
12130;DHT22;6128;59.340;18.040;2022-09-21T07:15:03;19.60;99.90
12130;DHT22;6128;59.340;18.040;2022-09-21T07:17:32;20.20;99.90
12130;DHT22;6128;59.340;18.040;2022-09-21T07:19:59;20.70;99.90
12130;DHT22;6128;59.340;18.040;2022-09-21T07:22:27;21.10;99.90
12130;DHT22;6128;59.340;18.040;2022-09-21T07:24:55;21.40;99.90
12130;DHT22;6128;59.340;18.040;2022-09-21T07:27:22;21.80;99.90
12130;DHT22;6128;59.340;18.040;2022-09-21T07:29:50;22.30;99.90
12130;DHT22;6128;59.340;18.040;2022-09-21T07:32:18;22.60;99.90
12130;DHT22;6128;59.340;18.040;2022-09-21T07:34:46;22.70;99.90
12130;DHT22;6128;59.340;18.040;2022-09-21T07:37:13;22.80;99.90
12130;DHT22;6128;59.340;18.040;2022-09-21T07:39:40;22.90;99.90
12130;DHT22;6128;59.340;18.040;2022-09-21T07:42:08;23.00;99.90
12130;DHT22;6128;59.340;18.040;2022-09-21T07:44:35;22.90;99.90
12130;DHT22;6128;59.340;18.040;2022-09-21T07:47:02;22.70;99.90
12130;DHT22;6128;59.340;18.040;2022-09-21T07:49:29;22.80;99.90
12130;DHT22;6128;59.340;18.040;2022-09-21T07:51:57;22.80;99.90
12130;DHT22;6128;59.340;18.040;2022-09-21T07:54:25;22.80;99.90
12130;DHT22;6128;59.340;18.040;2022-09-21T07:56:52;22.80;99.90
12130;DHT22;6128;59.340;18.040;2022-09-21T07:59:36;22.70;99.90
12130;DHT22;6128;59.340;18.040;2022-09-21T08:02:03;22.60;99.90
12130;DHT22;6128;59.340;18.040;2022-09-21T08:04:30;22.50;99.90
12130;DHT22;6128;59.340;18.040;2022-09-21T08:06:59;22.40;99.90
12130;DHT22;6128;59.340;18.040;2022-09-21T08:09:26;22.30;99.90
12130;DHT22;6128;59.340;18.040;2022-09-21T08:11:53;21.60;99.90
12130;DHT22;6128;59.340;18.040;2022-09-21T08:14:21;21.10;99.90
12130;DHT22;6128;59.340;18.040;2022-09-21T08:16:48;20.80;99.90
12130;DHT22;6128;59.340;18.040;2022-09-21T08:19:15;20.90;99.90
12130;DHT22;6128;59.340;18.040;2022-09-21T08:21:43;21.10;99.90
12130;DHT22;6128;59.340;18.040;2022-09-21T08:24:11;21.20;99.90
12130;DHT22;6128;59.340;18.040;2022-09-21T08:26:38;21.10;99.90
12130;DHT22;6128;59.340;18.040;2022-09-21T08:29:05;21.20;99.90
12130;DHT22;6128;59.340;18.040;2022-09-21T08:31:33;21.40;99.90
12130;DHT22;6128;59.340;18.040;2022-09-21T08:34:00;21.40;99.90
12130;DHT22;6128;59.340;18.040;2022-09-21T08:36:27;21.20;99.90
12130;DHT22;6128;59.340;18.040;2022-09-21T08:38:54;21.10;99.90
12130;DHT22;6128;59.340;18.040;2022-09-21T08:41:28;21.20;99.90
12130;DHT22;6128;59.340;18.040;2022-09-21T08:44:02;21.30;99.90
12130;DHT22;6128;59.340;18.040;2022-09-21T08:46:32;21.30;99.90
12130;DHT22;6128;59.340;18.040;2022-09-21T08:49:02;20.90;99.90
12130;DHT22;6128;59.340;18.040;2022-09-21T08:51:35;20.40;99.90
12130;DHT22;6128;59.340;18.040;2022-09-21T08:54:06;20.10;99.90
12130;DHT22;6128;59.340;18.040;2022-09-21T08:56:38;19.60;99.90
12130;DHT22;6128;59.340;18.040;2022-09-21T08:59:09;19.90;99.90
12130;DHT22;6128;59.340;18.040;2022-09-21T09:01:49;20.40;99.90
12130;DHT22;6128;59.340;18.040;2022-09-21T09:04:27;20.20;99.90
12130;DHT22;6128;59.340;18.040;2022-09-21T09:07:06;19.80;99.90
12130;DHT22;6128;59.340;18.040;2022-09-21T09:09:45;19.50;99.90
12130;DHT22;6128;59.340;18.040;2022-09-21T09:12:24;18.60;99.90
12130;DHT22;6128;59.340;18.040;2022-09-21T09:15:06;17.40;99.90
12130;DHT22;6128;59.340;18.040;2022-09-21T09:17:47;16.10;99.90
12130;DHT22;6128;59.340;18.040;2022-09-21T09:20:18;15.30;99.90
12130;DHT22;6128;59.340;18.040;2022-09-21T09:22:48;14.70;99.90
12130;DHT22;6128;59.340;18.040;2022-09-21T09:25:21;14.40;99.90
12130;DHT22;6128;59.340;18.040;2022-09-21T09:27:54;14.20;99.90
12130;DHT22;6128;59.340;18.040;2022-09-21T09:30:24;14.10;99.90
12130;DHT22;6128;59.340;18.040;2022-09-21T09:32:56;13.90;99.90
12130;DHT22;6128;59.340;18.040;2022-09-21T09:35:28;13.90;99.90
12130;DHT22;6128;59.340;18.040;2022-09-21T09:37:59;13.90;99.90
12130;DHT22;6128;59.340;18.040;2022-09-21T09:40:54;13.90;99.90
12130;DHT22;6128;59.340;18.040;2022-09-21T09:43:37;13.80;99.90
12130;DHT22;6128;59.340;18.040;2022-09-21T09:46:12;13.60;99.90
12130;DHT22;6128;59.340;18.040;2022-09-21T09:48:53;13.50;99.90
12130;DHT22;6128;59.340;18.040;2022-09-21T09:51:26;13.50;99.90
12130;DHT22;6128;59.340;18.040;2022-09-21T09:53:56;13.70;99.90
12130;DHT22;6128;59.340;18.040;2022-09-21T09:56:25;13.80;99.90
12130;DHT22;6128;59.340;18.040;2022-09-21T09:58:56;13.80;99.90
12130;DHT22;6128;59.340;18.040;2022-09-21T10:01:45;13.80;99.90
12130;DHT22;6128;59.340;18.040;2022-09-21T10:04:14;13.70;99.90
12130;DHT22;6128;59.340;18.040;2022-09-21T10:06:42;13.70;99.90
12130;DHT22;6128;59.340;18.040;2022-09-21T10:09:24;13.70;99.90
12130;DHT22;6128;59.340;18.040;2022-09-21T10:11:52;13.60;99.90
12130;DHT22;6128;59.340;18.040;2022-09-21T10:14:24;13.70;99.90
12130;DHT22;6128;59.340;18.040;2022-09-21T10:16:53;13.80;99.90
12130;DHT22;6128;59.340;18.040;2022-09-21T10:19:22;13.90;99.90
12130;DHT22;6128;59.340;18.040;2022-09-21T10:21:55;13.80;99.90
12130;DHT22;6128;59.340;18.040;2022-09-21T10:24:24;13.90;99.90
12130;DHT22;6128;59.340;18.040;2022-09-21T10:26:54;14.00;99.90
12130;DHT22;6128;59.340;18.040;2022-09-21T10:29:32;14.10;99.90
12130;DHT22;6128;59.340;18.040;2022-09-21T10:32:16;14.20;99.90
12130;DHT22;6128;59.340;18.040;2022-09-21T10:35:00;14.30;99.90
12130;DHT22;6128;59.340;18.040;2022-09-21T10:37:29;14.40;99.90
12130;DHT22;6128;59.340;18.040;2022-09-21T10:39:58;14.40;99.90
12130;DHT22;6128;59.340;18.040;2022-09-21T10:42:33;14.50;99.90
12130;DHT22;6128;59.340;18.040;2022-09-21T10:45:12;14.60;99.90
12130;DHT22;6128;59.340;18.040;2022-09-21T10:47:43;14.70;99.90
12130;DHT22;6128;59.340;18.040;2022-09-21T10:50:22;14.70;99.90
12130;DHT22;6128;59.340;18.040;2022-09-21T10:52:56;14.70;99.90
12130;DHT22;6128;59.340;18.040;2022-09-21T10:55:24;14.70;99.90
12130;DHT22;6128;59.340;18.040;2022-09-21T10:57:53;14.70;99.90
12130;DHT22;6128;59.340;18.040;2022-09-21T11:00:41;14.90;99.90
12130;DHT22;6128;59.340;18.040;2022-09-21T11:03:32;15.10;99.90
12130;DHT22;6128;59.340;18.040;2022-09-21T11:06:08;15.30;99.90
12130;DHT22;6128;59.340;18.040;2022-09-21T11:08:40;15.30;99.90
12130;DHT22;6128;59.340;18.040;2022-09-21T11:11:27;15.20;99.90
12130;DHT22;6128;59.340;18.040;2022-09-21T11:14:02;15.20;99.90
12130;DHT22;6128;59.340;18.040;2022-09-21T11:16:39;15.00;99.90
12130;DHT22;6128;59.340;18.040;2022-09-21T11:19:17;14.90;99.90
12130;DHT22;6128;59.340;18.040;2022-09-21T11:21:50;14.80;99.90
12130;DHT22;6128;59.340;18.040;2022-09-21T11:24:24;14.80;99.90
12130;DHT22;6128;59.340;18.040;2022-09-21T11:26:55;14.80;99.90
12130;DHT22;6128;59.340;18.040;2022-09-21T11:29:36;14.80;99.90
12130;DHT22;6128;59.340;18.040;2022-09-21T11:32:17;14.90;99.90
12130;DHT22;6128;59.340;18.040;2022-09-21T11:35:16;15.00;99.80
12130;DHT22;6128;59.340;18.040;2022-09-21T11:37:52;15.10;99.70
12130;DHT22;6128;59.340;18.040;2022-09-21T11:40:35;15.20;99.70
12130;DHT22;6128;59.340;18.040;2022-09-21T11:43:15;15.20;99.70
12130;DHT22;6128;59.340;18.040;2022-09-21T11:46:03;15.00;99.60
12130;DHT22;6128;59.340;18.040;2022-09-21T11:48:48;15.00;99.10
12130;DHT22;6128;59.340;18.040;2022-09-21T11:51:34;14.90;99.10
12130;DHT22;6128;59.340;18.040;2022-09-21T11:57:08;14.90;98.90
12130;DHT22;6128;59.340;18.040;2022-09-21T11:59:52;15.00;98.90
12130;DHT22;6128;59.340;18.040;2022-09-21T12:03:07;14.90;98.80
12130;DHT22;6128;59.340;18.040;2022-09-21T12:05:47;14.90;98.90
12130;DHT22;6128;59.340;18.040;2022-09-21T12:08:34;14.80;98.90
12130;DHT22;6128;59.340;18.040;2022-09-21T12:11:10;14.90;98.80
12130;DHT22;6128;59.340;18.040;2022-09-21T12:13:48;14.90;98.80
12130;DHT22;6128;59.340;18.040;2022-09-21T12:16:26;15.10;98.90
12130;DHT22;6128;59.340;18.040;2022-09-21T12:19:02;15.20;98.90
12130;DHT22;6128;59.340;18.040;2022-09-21T12:21:35;15.30;99.10
12130;DHT22;6128;59.340;18.040;2022-09-21T12:24:13;15.40;99.10
12130;DHT22;6128;59.340;18.040;2022-09-21T12:26:42;15.40;99.10
12130;DHT22;6128;59.340;18.040;2022-09-21T12:29:14;15.40;99.00
12130;DHT22;6128;59.340;18.040;2022-09-21T12:31:49;15.60;98.90
12130;DHT22;6128;59.340;18.040;2022-09-21T12:34:21;15.60;98.90
12130;DHT22;6128;59.340;18.040;2022-09-21T12:37:00;15.60;98.80
12130;DHT22;6128;59.340;18.040;2022-09-21T12:39:36;15.70;98.80
12130;DHT22;6128;59.340;18.040;2022-09-21T12:42:09;15.70;98.70
12130;DHT22;6128;59.340;18.040;2022-09-21T12:44:43;15.70;98.80
12130;DHT22;6128;59.340;18.040;2022-09-21T12:47:21;15.70;98.90
12130;DHT22;6128;59.340;18.040;2022-09-21T12:49:58;15.80;98.90
12130;DHT22;6128;59.340;18.040;2022-09-21T12:52:31;15.80;99.00
12130;DHT22;6128;59.340;18.040;2022-09-21T12:55:06;15.70;99.00
12130;DHT22;6128;59.340;18.040;2022-09-21T12:57:50;15.70;99.00
12130;DHT22;6128;59.340;18.040;2022-09-21T13:00:20;15.70;98.90
12130;DHT22;6128;59.340;18.040;2022-09-21T13:02:53;15.50;98.80
12130;DHT22;6128;59.340;18.040;2022-09-21T13:05:32;15.30;98.80
12130;DHT22;6128;59.340;18.040;2022-09-21T13:08:12;15.20;98.70
12130;DHT22;6128;59.340;18.040;2022-09-21T13:10:44;15.10;98.60
12130;DHT22;6128;59.340;18.040;2022-09-21T13:13:22;14.80;98.50
12130;DHT22;6128;59.340;18.040;2022-09-21T13:15:50;14.70;98.50
12130;DHT22;6128;59.340;18.040;2022-09-21T13:18:22;14.60;98.40
12130;DHT22;6128;59.340;18.040;2022-09-21T13:20:50;14.60;98.30
12130;DHT22;6128;59.340;18.040;2022-09-21T13:23:25;14.50;98.30
12130;DHT22;6128;59.340;18.040;2022-09-21T13:26:05;14.50;98.30
12130;DHT22;6128;59.340;18.040;2022-09-21T13:31:41;14.50;98.20
12130;DHT22;6128;59.340;18.040;2022-09-21T13:34:24;14.60;98.00
12130;DHT22;6128;59.340;18.040;2022-09-21T13:37:26;14.70;98.00
12130;DHT22;6128;59.340;18.040;2022-09-21T13:43:43;14.90;97.80
12130;DHT22;6128;59.340;18.040;2022-09-21T13:49:26;15.00;97.90
12130;DHT22;6128;59.340;18.040;2022-09-21T13:51:57;15.10;98.00
12130;DHT22;6128;59.340;18.040;2022-09-21T13:54:28;15.20;98.10
12130;DHT22;6128;59.340;18.040;2022-09-21T13:57:14;15.10;98.10
12130;DHT22;6128;59.340;18.040;2022-09-21T13:59:46;15.00;98.10
12130;DHT22;6128;59.340;18.040;2022-09-21T14:02:28;15.00;98.10
12130;DHT22;6128;59.340;18.040;2022-09-21T14:05:05;14.90;98.00
12130;DHT22;6128;59.340;18.040;2022-09-21T14:07:33;15.10;98.10
12130;DHT22;6128;59.340;18.040;2022-09-21T14:10:04;15.20;98.00
12130;DHT22;6128;59.340;18.040;2022-09-21T14:12:37;15.30;98.10
12130;DHT22;6128;59.340;18.040;2022-09-21T14:15:32;15.30;98.10
12130;DHT22;6128;59.340;18.040;2022-09-21T14:21:14;15.40;97.90
12130;DHT22;6128;59.340;18.040;2022-09-21T14:27:13;15.60;97.70
12130;DHT22;6128;59.340;18.040;2022-09-21T14:29:45;15.70;97.60
12130;DHT22;6128;59.340;18.040;2022-09-21T14:32:18;15.70;97.60
12130;DHT22;6128;59.340;18.040;2022-09-21T14:34:49;15.70;97.90
12130;DHT22;6128;59.340;18.040;2022-09-21T14:37:30;15.70;97.90
12130;DHT22;6128;59.340;18.040;2022-09-21T14:39:59;15.60;97.90
12130;DHT22;6128;59.340;18.040;2022-09-21T14:42:31;15.60;98.00
12130;DHT22;6128;59.340;18.040;2022-09-21T14:44:59;15.50;98.10
12130;DHT22;6128;59.340;18.040;2022-09-21T14:47:42;15.40;98.10
12130;DHT22;6128;59.340;18.040;2022-09-21T14:50:31;15.20;98.00
12130;DHT22;6128;59.340;18.040;2022-09-21T14:53:23;15.10;97.90
12130;DHT22;6128;59.340;18.040;2022-09-21T14:56:07;15.00;98.00
12130;DHT22;6128;59.340;18.040;2022-09-21T14:58:47;15.00;98.00
12130;DHT22;6128;59.340;18.040;2022-09-21T15:01:35;15.00;97.90
12130;DHT22;6128;59.340;18.040;2022-09-21T15:04:28;15.00;97.90
12130;DHT22;6128;59.340;18.040;2022-09-21T15:07:06;14.90;97.90
12130;DHT22;6128;59.340;18.040;2022-09-21T15:10:20;14.90;98.00
12130;DHT22;6128;59.340;18.040;2022-09-21T15:13:21;14.90;97.90
12130;DHT22;6128;59.340;18.040;2022-09-21T15:16:08;14.90;97.90
12130;DHT22;6128;59.340;18.040;2022-09-21T15:18:43;14.90;98.00
12130;DHT22;6128;59.340;18.040;2022-09-21T15:21:21;14.90;98.00
12130;DHT22;6128;59.340;18.040;2022-09-21T15:23:49;14.90;97.90
12130;DHT22;6128;59.340;18.040;2022-09-21T15:26:20;14.90;97.80
12130;DHT22;6128;59.340;18.040;2022-09-21T15:28:53;14.90;97.70
12130;DHT22;6128;59.340;18.040;2022-09-21T15:31:21;14.90;97.70
12130;DHT22;6128;59.340;18.040;2022-09-21T15:33:50;14.90;97.60
12130;DHT22;6128;59.340;18.040;2022-09-21T15:36:25;14.90;97.60
12130;DHT22;6128;59.340;18.040;2022-09-21T15:38:54;14.80;97.80
12130;DHT22;6128;59.340;18.040;2022-09-21T15:41:39;14.60;98.20
12130;DHT22;6128;59.340;18.040;2022-09-21T15:44:12;14.40;98.50
12130;DHT22;6128;59.340;18.040;2022-09-21T15:46:41;14.20;98.90
12130;DHT22;6128;59.340;18.040;2022-09-21T15:49:13;14.10;99.30
12130;DHT22;6128;59.340;18.040;2022-09-21T15:51:47;14.00;99.60
12130;DHT22;6128;59.340;18.040;2022-09-21T15:54:26;13.80;99.80
12130;DHT22;6128;59.340;18.040;2022-09-21T15:56:57;13.70;99.90
12130;DHT22;6128;59.340;18.040;2022-09-21T15:59:25;13.60;99.90
12130;DHT22;6128;59.340;18.040;2022-09-21T16:01:56;13.60;99.90
12130;DHT22;6128;59.340;18.040;2022-09-21T16:04:25;13.50;99.90
12130;DHT22;6128;59.340;18.040;2022-09-21T16:07:02;13.50;99.90
12130;DHT22;6128;59.340;18.040;2022-09-21T16:09:40;13.40;99.90
12130;DHT22;6128;59.340;18.040;2022-09-21T16:12:38;13.30;99.90
12130;DHT22;6128;59.340;18.040;2022-09-21T16:15:14;13.20;99.90
12130;DHT22;6128;59.340;18.040;2022-09-21T16:17:53;13.20;99.90
12130;DHT22;6128;59.340;18.040;2022-09-21T16:20:23;13.10;99.90
12130;DHT22;6128;59.340;18.040;2022-09-21T16:23:03;13.00;99.90
12130;DHT22;6128;59.340;18.040;2022-09-21T16:25:33;13.00;99.90
12130;DHT22;6128;59.340;18.040;2022-09-21T16:28:04;12.90;99.90
12130;DHT22;6128;59.340;18.040;2022-09-21T16:30:43;12.90;99.90
12130;DHT22;6128;59.340;18.040;2022-09-21T16:33:55;12.80;99.90
12130;DHT22;6128;59.340;18.040;2022-09-21T16:36:39;12.80;99.90